Terminal Aerodrome Forecast
Issued by NWS Sterling, VA

Current Version | Previous Version | Graphics & Text | Print | Product List | Glossary On
Versions: 1 2 3 4 5 6 7 8 9 10 11 12 13 14 15 16 17 18 19 20 21 22 23
000
FTUS41 KLWX 191722
TAFDCA
TAF
KDCA 191722Z 1918/2018 30019G34KT P6SM BKN050 BKN150
     FM192100 30017G26KT P6SM BKN060 BKN200
     FM192200 30015G23KT P6SM FEW060 SCT200
     FM200200 28009KT P6SM FEW050 SCT250=

USA.gov is the U.S. government's official web portal to all federal, state and local government web resources and services.